Time;durP1;ratioP1;P1;durP2;ratioP2;P2;SDS_P1;SDS_P2;PMS_P1;PMS_P2;Temp;Humidity;BMP_temperature;BMP_pressure;BME280_temperature;BME280_humidity;BME280_pressure;Samples;Min_cycle;Max_cycle;Signal;HPM_P1;HPM_P2
2022/09/10 00:00:27;;;;;;;17.58;15.70;;;;;;;;;;5014688;28;20381;-75
2022/09/10 00:02:53;;;;;;;17.05;15.35;;;;;;;;;;5002414;28;20081;-75
2022/09/10 00:05:20;;;;;;;16.95;15.25;;;;;;;;;;5016493;28;20045;-75
2022/09/10 00:07:46;;;;;;;18.45;16.65;;;;;;;;;;5013292;28;20046;-75
2022/09/10 00:10:12;;;;;;;20.00;16.15;;;;;;;;;;5012850;28;20046;-75
2022/09/10 00:12:41;;;;;;;19.55;17.55;;;;;;;;;;5017575;28;20038;-75
2022/09/10 00:15:08;;;;;;;19.17;17.27;;;;;;;;;;5016853;28;20129;-75
2022/09/10 00:17:35;;;;;;;18.92;16.92;;;;;;;;;;5016627;28;20530;-75
2022/09/10 00:20:02;;;;;;;20.30;17.70;;;;;;;;;;5016319;28;20512;-75
2022/09/10 00:22:28;;;;;;;18.88;16.98;;;;;;;;;;5017141;28;20071;-75
2022/09/10 00:24:57;;;;;;;20.02;18.00;;;;;;;;;;5010703;28;20046;-75
2022/09/10 00:27:23;;;;;;;20.42;18.45;;;;;;;;;;5006252;28;20041;-75
2022/09/10 00:29:53;;;;;;;20.60;18.13;;;;;;;;;;4987772;28;20453;-75
2022/09/10 00:32:20;;;;;;;20.45;18.42;;;;;;;;;;4989077;28;20404;-75
2022/09/10 00:34:47;;;;;;;21.50;18.42;;;;;;;;;;4988480;28;20046;-74
2022/09/10 00:37:13;;;;;;;21.35;19.15;;;;;;;;;;5000009;28;20046;-74
2022/09/10 00:39:39;;;;;;;22.35;20.15;;;;;;;;;;5002723;28;20034;-74
2022/09/10 00:42:06;;;;;;;22.42;18.88;;;;;;;;;;5004493;28;20061;-75
2022/09/10 00:44:41;;;;;;;21.52;19.35;;;;;;;;;;5004434;28;20042;-74
2022/09/10 00:47:10;;;;;;;21.85;19.55;;;;;;;;;;5007010;28;20540;-75
2022/09/10 00:49:49;;;;;;;23.17;20.35;;;;;;;;;;5004432;28;20042;-75
2022/09/10 00:52:15;;;;;;;21.98;19.85;;;;;;;;;;5004304;28;20069;-75
2022/09/10 00:54:42;;;;;;;22.88;20.60;;;;;;;;;;5004114;28;20034;-75
2022/09/10 00:57:15;;;;;;;22.73;20.55;;;;;;;;;;4985414;28;20411;-75
2022/09/10 00:59:43;;;;;;;22.63;20.33;;;;;;;;;;4984672;28;20049;-74
2022/09/10 01:02:09;;;;;;;25.83;20.10;;;;;;;;;;5004771;28;20037;-74
2022/09/10 01:04:35;;;;;;;22.77;20.55;;;;;;;;;;5008335;28;20038;-75
2022/09/10 01:07:01;;;;;;;22.83;20.38;;;;;;;;;;4997012;28;20061;-75
2022/09/10 01:09:28;;;;;;;22.63;20.38;;;;;;;;;;5004648;28;20058;-75
2022/09/10 01:12:07;;;;;;;23.55;21.27;;;;;;;;;;4990800;28;20254;-75
2022/09/10 01:14:52;;;;;;;23.55;21.23;;;;;;;;;;4976736;28;20125;-75
2022/09/10 01:17:30;;;;;;;23.48;21.17;;;;;;;;;;5006787;28;20042;-75
2022/09/10 01:20:02;;;;;;;23.38;21.05;;;;;;;;;;5004514;28;20042;-75
2022/09/10 01:22:58;;;;;;;25.23;21.85;;;;;;;;;;4993639;28;20050;-75
2022/09/10 01:25:37;;;;;;;23.27;20.85;;;;;;;;;;5001093;28;20548;-75
2022/09/10 01:28:07;;;;;;;23.92;21.58;;;;;;;;;;4992716;28;20065;-75
2022/09/10 01:30:36;;;;;;;23.98;21.67;;;;;;;;;;5004068;28;20096;-75
2022/09/10 01:33:14;;;;;;;23.33;20.85;;;;;;;;;;5002287;28;20085;-75
2022/09/10 01:35:40;;;;;;;25.27;22.75;;;;;;;;;;4985607;28;20070;-75
2022/09/10 01:38:09;;;;;;;24.13;21.65;;;;;;;;;;5003758;28;20046;-75
2022/09/10 01:40:36;;;;;;;23.58;21.30;;;;;;;;;;4976415;28;20673;-75
2022/09/10 01:43:06;;;;;;;25.48;22.88;;;;;;;;;;4986475;28;20046;-75
2022/09/10 01:45:35;;;;;;;23.90;21.33;;;;;;;;;;5003330;28;20098;-75
2022/09/10 01:48:27;;;;;;;25.08;22.35;;;;;;;;;;5002181;28;20126;-75
2022/09/10 01:50:56;;;;;;;;;;;;;;;;;;5003170;28;20042;-75
2022/09/10 01:53:32;;;;;;;23.70;21.50;;;;;;;;;;5001717;28;19925;-75
2022/09/10 01:56:02;;;;;;;23.38;20.90;;;;;;;;;;4995698;28;20540;-75
2022/09/10 01:58:39;;;;;;;23.30;21.10;;;;;;;;;;4998206;28;20049;-75
2022/09/10 02:01:08;;;;;;;24.55;22.05;;;;;;;;;;5005314;28;20061;-75
2022/09/10 02:03:36;;;;;;;24.88;22.30;;;;;;;;;;4988875;28;20092;-75
2022/09/10 02:06:02;;;;;;;31.00;21.85;;;;;;;;;;4999657;28;20053;-75
2022/09/10 02:08:30;;;;;;;24.95;21.52;;;;;;;;;;4983762;28;20504;-75
2022/09/10 02:10:58;;;;;;;25.45;22.75;;;;;;;;;;4999924;28;20049;-75
2022/09/10 02:13:24;;;;;;;24.52;22.13;;;;;;;;;;4984650;28;20065;-75
2022/09/10 02:15:51;;;;;;;23.58;20.80;;;;;;;;;;5001504;28;20382;-75
2022/09/10 02:18:18;;;;;;;24.13;21.83;;;;;;;;;;5002527;28;20042;-75
2022/09/10 02:20:45;;;;;;;24.67;22.17;;;;;;;;;;5004341;28;20046;-75
2022/09/10 02:23:12;;;;;;;23.25;20.80;;;;;;;;;;5003783;28;20133;-75
2022/09/10 02:25:38;;;;;;;23.33;21.00;;;;;;;;;;5004822;28;20045;-75
2022/09/10 02:28:05;;;;;;;24.02;21.65;;;;;;;;;;5010425;28;20057;-74
2022/09/10 02:30:31;;;;;;;22.50;20.23;;;;;;;;;;5023833;28;20050;-74
2022/09/10 02:32:57;;;;;;;23.27;20.98;;;;;;;;;;5023792;28;20054;-75
2022/09/10 02:35:23;;;;;;;23.08;20.63;;;;;;;;;;5021317;28;20399;-75
2022/09/10 02:37:49;;;;;;;24.42;20.23;;;;;;;;;;5022663;28;20038;-75
2022/09/10 02:40:18;;;;;;;23.27;20.77;;;;;;;;;;5012789;28;20080;-75
2022/09/10 02:42:45;;;;;;;22.60;20.35;;;;;;;;;;5020733;28;20042;-75
2022/09/10 02:45:12;;;;;;;22.30;19.98;;;;;;;;;;5021237;28;20034;-75
2022/09/10 02:47:38;;;;;;;24.17;21.55;;;;;;;;;;5019352;28;20099;-75
2022/09/10 02:50:05;;;;;;;23.55;19.30;;;;;;;;;;5021776;28;20068;-75
2022/09/10 02:52:32;;;;;;;23.67;19.90;;;;;;;;;;5020823;28;20038;-75
2022/09/10 02:54:58;;;;;;;22.55;20.25;;;;;;;;;;5019500;28;20050;-75
2022/09/10 02:57:25;;;;;;;21.77;19.13;;;;;;;;;;5023872;28;20038;-75
2022/09/10 02:59:52;;;;;;;24.20;19.40;;;;;;;;;;5003368;28;20100;-75
2022/09/10 03:02:19;;;;;;;22.23;19.85;;;;;;;;;;5003030;28;20135;-75
2022/09/10 03:04:45;;;;;;;25.48;20.45;;;;;;;;;;5032295;28;20041;-75
2022/09/10 03:07:15;;;;;;;22.48;20.15;;;;;;;;;;5019038;28;20073;-74
2022/09/10 03:09:41;;;;;;;25.33;20.93;;;;;;;;;;5003965;28;20081;-75
2022/09/10 03:12:07;;;;;;;23.40;19.90;;;;;;;;;;5021147;28;20305;-74
2022/09/10 03:14:34;;;;;;;22.98;19.85;;;;;;;;;;5019361;28;20042;-75
2022/09/10 03:17:01;;;;;;;27.55;20.75;;;;;;;;;;5021123;28;20046;-75
2022/09/10 03:19:27;;;;;;;22.95;20.65;;;;;;;;;;5001317;28;20049;-75
2022/09/10 03:21:53;;;;;;;22.25;19.67;;;;;;;;;;5019431;28;20503;-75
2022/09/10 03:24:21;;;;;;;23.08;19.40;;;;;;;;;;5019820;28;20046;-75
2022/09/10 03:26:47;;;;;;;25.25;20.73;;;;;;;;;;5021499;28;20550;-75
2022/09/10 03:29:14;;;;;;;22.63;19.70;;;;;;;;;;5007526;28;20050;-75
2022/09/10 03:31:41;;;;;;;23.40;20.15;;;;;;;;;;5008959;28;20121;-75
2022/09/10 03:34:07;;;;;;;23.10;19.73;;;;;;;;;;4997675;28;20054;-75
2022/09/10 03:36:33;;;;;;;25.33;20.40;;;;;;;;;;5015922;28;20045;-75
2022/09/10 03:38:59;;;;;;;26.58;22.00;;;;;;;;;;5010230;28;20062;-75
2022/09/10 03:41:27;;;;;;;27.38;20.98;;;;;;;;;;5019094;28;20046;-75
2022/09/10 03:43:53;;;;;;;24.90;20.25;;;;;;;;;;5019482;28;20092;-75
2022/09/10 03:46:20;;;;;;;24.25;18.85;;;;;;;;;;5018611;28;20159;-75
2022/09/10 03:48:46;;;;;;;22.73;18.85;;;;;;;;;;5019872;28;20046;-75
2022/09/10 03:51:12;;;;;;;24.95;20.05;;;;;;;;;;5012000;28;20041;-75
2022/09/10 03:53:39;;;;;;;25.90;20.75;;;;;;;;;;5009500;28;20050;-75
2022/09/10 03:56:05;;;;;;;29.55;20.80;;;;;;;;;;5019021;28;20061;-75
2022/09/10 03:58:31;;;;;;;24.30;20.00;;;;;;;;;;5017784;28;20041;-75
2022/09/10 04:00:58;;;;;;;25.20;19.88;;;;;;;;;;5002086;28;20042;-75
2022/09/10 04:03:24;;;;;;;25.20;19.48;;;;;;;;;;5019864;28;20050;-75
2022/09/10 04:05:50;;;;;;;26.92;19.67;;;;;;;;;;5015951;28;20128;-75
2022/09/10 04:08:16;;;;;;;22.80;17.35;;;;;;;;;;5018503;28;20052;-75
2022/09/10 04:10:43;;;;;;;24.60;18.85;;;;;;;;;;5018689;28;20049;-75
2022/09/10 04:13:09;;;;;;;25.05;18.60;;;;;;;;;;5019392;28;20046;-75
2022/09/10 04:15:36;;;;;;;26.17;19.80;;;;;;;;;;5019380;28;20462;-75
2022/09/10 04:18:02;;;;;;;24.30;19.42;;;;;;;;;;5022804;28;20049;-75
2022/09/10 04:20:28;;;;;;;21.65;18.45;;;;;;;;;;5008774;28;20046;-75
2022/09/10 04:22:55;;;;;;;25.23;20.02;;;;;;;;;;5024780;28;20046;-75
2022/09/10 04:25:22;;;;;;;22.75;19.25;;;;;;;;;;5022275;28;20428;-75
2022/09/10 04:27:48;;;;;;;26.33;19.17;;;;;;;;;;5020953;28;20058;-75
2022/09/10 04:30:15;;;;;;;27.23;20.35;;;;;;;;;;5023244;28;20053;-75
2022/09/10 04:32:41;;;;;;;24.52;19.83;;;;;;;;;;5020598;28;20041;-75
2022/09/10 04:35:07;;;;;;;21.33;17.70;;;;;;;;;;5020374;28;20451;-75
2022/09/10 04:37:34;;;;;;;24.00;18.92;;;;;;;;;;5022755;28;20496;-75
2022/09/10 04:40:00;;;;;;;22.88;18.85;;;;;;;;;;5018506;28;20056;-75
2022/09/10 04:42:27;;;;;;;28.90;21.17;;;;;;;;;;5022360;28;20124;-75
2022/09/10 04:44:53;;;;;;;26.77;19.85;;;;;;;;;;5001545;28;20050;-75
2022/09/10 04:47:20;;;;;;;24.73;19.98;;;;;;;;;;5022164;28;20046;-75
2022/09/10 04:49:46;;;;;;;25.58;20.00;;;;;;;;;;5021358;28;20041;-75
2022/09/10 04:52:12;;;;;;;28.52;19.48;;;;;;;;;;5017656;28;20041;-75
2022/09/10 04:54:38;;;;;;;24.80;19.92;;;;;;;;;;4999980;28;20053;-75
2022/09/10 04:57:05;;;;;;;29.88;20.45;;;;;;;;;;5020496;28;20042;-75
2022/09/10 04:59:31;;;;;;;22.55;18.80;;;;;;;;;;5020784;28;20562;-75
2022/09/10 05:01:57;;;;;;;34.22;21.13;;;;;;;;;;5015708;28;20050;-75
2022/09/10 05:04:24;;;;;;;24.70;18.58;;;;;;;;;;5005915;28;20038;-75
2022/09/10 05:06:50;;;;;;;27.38;19.35;;;;;;;;;;5019696;28;20480;-75
2022/09/10 05:09:17;;;;;;;25.80;20.23;;;;;;;;;;5017466;28;20073;-75
2022/09/10 05:11:43;;;;;;;23.52;20.40;;;;;;;;;;5015198;28;20050;-75
2022/09/10 05:14:09;;;;;;;27.00;19.88;;;;;;;;;;5015915;28;20400;-75
2022/09/10 05:16:35;;;;;;;29.20;19.88;;;;;;;;;;5018208;28;20050;-75
2022/09/10 05:19:02;;;;;;;29.17;20.98;;;;;;;;;;5019862;28;20190;-75
2022/09/10 05:21:30;;;;;;;29.25;20.95;;;;;;;;;;5018244;28;20046;-75
2022/09/10 05:23:56;;;;;;;26.13;20.50;;;;;;;;;;5019096;28;20037;-75
2022/09/10 05:26:22;;;;;;;26.88;21.67;;;;;;;;;;5019248;28;20092;-75
2022/09/10 05:28:50;;;;;;;29.48;21.75;;;;;;;;;;5019046;28;20566;-75
2022/09/10 05:31:16;;;;;;;30.83;21.02;;;;;;;;;;5000086;28;20492;-75
2022/09/10 05:33:42;;;;;;;31.30;22.58;;;;;;;;;;4988309;28;20457;-75
2022/09/10 05:36:09;;;;;;;28.10;21.27;;;;;;;;;;5018021;28;20034;-75
2022/09/10 05:38:35;;;;;;;30.83;21.33;;;;;;;;;;5015356;28;20050;-75
2022/09/10 05:41:02;;;;;;;32.30;23.05;;;;;;;;;;5018584;28;20377;-75
2022/09/10 05:43:28;;;;;;;29.23;23.27;;;;;;;;;;5019515;28;20056;-75
2022/09/10 05:45:54;;;;;;;26.88;21.05;;;;;;;;;;5019443;28;20130;-75
2022/09/10 05:48:20;;;;;;;32.58;23.30;;;;;;;;;;5017171;28;20046;-75
2022/09/10 05:50:46;;;;;;;28.92;22.35;;;;;;;;;;5017286;28;20048;-75
2022/09/10 05:53:13;;;;;;;33.00;22.63;;;;;;;;;;5014855;28;20088;-75
2022/09/10 05:55:39;;;;;;;28.63;23.52;;;;;;;;;;5014598;28;20407;-75
2022/09/10 05:58:05;;;;;;;29.85;22.70;;;;;;;;;;5018185;28;20099;-75
2022/09/10 06:00:31;;;;;;;30.45;23.52;;;;;;;;;;4999338;28;20042;-75
2022/09/10 06:02:57;;;;;;;33.10;24.30;;;;;;;;;;4996071;28;20558;-75
2022/09/10 06:05:23;;;;;;;37.90;24.95;;;;;;;;;;5016180;28;20944;-75
2022/09/10 06:07:49;;;;;;;38.70;25.40;;;;;;;;;;4998598;28;20200;-75
2022/09/10 06:10:16;;;;;;;36.15;25.38;;;;;;;;;;4997597;28;20038;-76
2022/09/10 06:12:50;;;;;;;37.00;26.02;;;;;;;;;;5017280;28;20046;-75
2022/09/10 06:15:17;;;;;;;36.63;26.20;;;;;;;;;;5015392;28;20054;-75
2022/09/10 06:17:43;;;;;;;38.42;26.13;;;;;;;;;;5012105;28;20068;-75
2022/09/10 06:20:12;;;;;;;40.97;26.23;;;;;;;;;;5008703;28;20046;-75
2022/09/10 06:22:41;;;;;;;38.83;27.48;;;;;;;;;;5018151;28;20046;-75
2022/09/10 06:25:07;;;;;;;32.17;26.55;;;;;;;;;;5015665;28;20124;-75
2022/09/10 06:27:34;;;;;;;38.83;27.35;;;;;;;;;;5016040;28;20053;-75
2022/09/10 06:30:00;;;;;;;41.83;27.88;;;;;;;;;;5015018;28;20099;-75
2022/09/10 06:32:26;;;;;;;35.25;24.95;;;;;;;;;;5017538;28;20056;-79
2022/09/10 06:34:52;;;;;;;48.72;29.42;;;;;;;;;;5000169;28;20061;-75
2022/09/10 06:37:18;;;;;;;44.40;30.17;;;;;;;;;;5019544;28;20443;-75
2022/09/10 06:39:44;;;;;;;44.83;29.60;;;;;;;;;;5015871;28;20050;-75
2022/09/10 06:42:10;;;;;;;45.00;30.75;;;;;;;;;;5016047;28;20073;-75
2022/09/10 06:44:36;;;;;;;40.90;29.05;;;;;;;;;;5014149;28;20071;-75
2022/09/10 06:47:02;;;;;;;48.67;30.70;;;;;;;;;;5000125;28;20057;-75
2022/09/10 06:49:30;;;;;;;50.15;29.95;;;;;;;;;;5018631;28;20065;-75
2022/09/10 06:51:56;;;;;;;46.75;31.38;;;;;;;;;;5019315;28;20046;-75
2022/09/10 06:54:22;;;;;;;51.53;31.33;;;;;;;;;;5019880;28;20467;-75
2022/09/10 06:56:48;;;;;;;41.92;30.20;;;;;;;;;;5001684;28;20049;-75
2022/09/10 06:59:15;;;;;;;49.58;29.88;;;;;;;;;;5019378;28;20103;-75
2022/09/10 07:01:41;;;;;;;49.88;30.65;;;;;;;;;;5016792;28;20451;-75
2022/09/10 07:04:08;;;;;;;49.00;29.77;;;;;;;;;;5015340;28;20460;-75
2022/09/10 07:06:34;;;;;;;47.25;30.60;;;;;;;;;;4999543;28;20396;-75
2022/09/10 07:09:00;;;;;;;46.35;28.45;;;;;;;;;;5000747;28;20128;-75
2022/09/10 07:11:29;;;;;;;47.58;30.60;;;;;;;;;;5018352;28;20041;-75
2022/09/10 07:13:55;;;;;;;49.13;28.80;;;;;;;;;;5019623;28;20054;-75
2022/09/10 07:16:22;;;;;;;43.08;27.98;;;;;;;;;;5017833;28;20041;-75
2022/09/10 07:18:53;;;;;;;43.72;28.23;;;;;;;;;;5015362;28;20056;-75
2022/09/10 07:21:20;;;;;;;42.40;28.10;;;;;;;;;;5016836;28;20046;-75
2022/09/10 07:23:47;;;;;;;37.53;26.65;;;;;;;;;;5014248;28;20419;-75
2022/09/10 07:26:16;;;;;;;44.60;27.98;;;;;;;;;;5015302;28;20072;-75
2022/09/10 07:28:42;;;;;;;40.42;26.63;;;;;;;;;;5011235;28;20057;-76
2022/09/10 07:31:16;;;;;;;38.05;26.80;;;;;;;;;;5010896;28;20157;-75
2022/09/10 07:33:42;;;;;;;36.95;24.58;;;;;;;;;;5014961;28;20099;-77
2022/09/10 07:36:09;;;;;;;36.40;26.65;;;;;;;;;;5012878;28;20046;-75
2022/09/10 07:38:36;;;;;;;34.80;24.70;;;;;;;;;;5013582;28;20046;-76
2022/09/10 07:41:02;;;;;;;41.20;27.23;;;;;;;;;;5014664;28;20073;-76
2022/09/10 07:43:28;;;;;;;36.80;26.45;;;;;;;;;;5011459;28;20044;-76
2022/09/10 07:45:54;;;;;;;36.92;25.02;;;;;;;;;;4996852;28;20049;-75
2022/09/10 07:48:21;;;;;;;40.05;26.08;;;;;;;;;;5009378;28;20042;-75
2022/09/10 07:50:47;;;;;;;33.42;25.65;;;;;;;;;;5007100;28;20400;-76
2022/09/10 07:53:15;;;;;;;36.05;25.17;;;;;;;;;;5010220;28;20073;-76
2022/09/10 07:55:41;;;;;;;39.97;25.48;;;;;;;;;;5012950;28;20105;-75
2022/09/10 07:58:07;;;;;;;37.20;24.98;;;;;;;;;;4994403;28;20404;-76
2022/09/10 08:00:33;;;;;;;40.88;24.95;;;;;;;;;;5010518;28;20108;-75
2022/09/10 08:02:59;;;;;;;35.88;23.30;;;;;;;;;;5010367;28;20053;-75
2022/09/10 08:05:27;;;;;;;39.13;25.33;;;;;;;;;;5011618;28;20045;-76
2022/09/10 08:07:54;;;;;;;34.92;24.65;;;;;;;;;;5012963;28;20046;-78
2022/09/10 08:10:21;;;;;;;36.15;24.95;;;;;;;;;;5012669;28;20391;-75
2022/09/10 08:12:48;;;;;;;36.42;26.90;;;;;;;;;;5013338;28;20117;-75
2022/09/10 08:15:14;;;;;;;32.97;24.67;;;;;;;;;;5013821;28;20053;-77
2022/09/10 08:17:40;;;;;;;35.25;23.20;;;;;;;;;;5020165;28;20046;-75
2022/09/10 08:20:07;;;;;;;40.50;24.80;;;;;;;;;;5010641;28;20376;-77
2022/09/10 08:22:34;;;;;;;38.35;23.52;;;;;;;;;;5010020;28;20066;-75
2022/09/10 08:25:00;;;;;;;35.15;22.75;;;;;;;;;;5008869;28;20050;-76
2022/09/10 08:27:26;;;;;;;36.72;22.83;;;;;;;;;;5008240;28;20444;-74
2022/09/10 08:29:53;;;;;;;34.17;23.40;;;;;;;;;;5017764;28;20065;-76
2022/09/10 08:32:20;;;;;;;30.90;22.77;;;;;;;;;;5013420;28;20098;-76
2022/09/10 08:34:47;;;;;;;32.35;23.10;;;;;;;;;;5019376;28;20057;-77
2022/09/10 08:37:15;;;;;;;31.70;22.17;;;;;;;;;;5012135;28;20061;-77
2022/09/10 08:39:42;;;;;;;31.20;21.40;;;;;;;;;;5015447;28;20074;-77
2022/09/10 08:42:17;;;;;;;31.65;23.05;;;;;;;;;;5014420;28;20121;-76
2022/09/10 08:44:49;;;;;;;35.67;24.15;;;;;;;;;;5011608;28;20042;-74
2022/09/10 08:47:16;;;;;;;;;;;;;;;;;;5014601;28;20046;-75
2022/09/10 08:49:48;;;;;;;34.78;25.98;;;;;;;;;;5015817;28;19943;-76
2022/09/10 08:52:27;;;;;;;29.90;20.88;;;;;;;;;;5012259;28;20117;-75
2022/09/10 08:54:53;;;;;;;28.48;19.67;;;;;;;;;;4995636;28;20076;-74
2022/09/10 08:57:25;;;;;;;28.80;20.13;;;;;;;;;;5014393;28;20411;-76
2022/09/10 08:59:51;;;;;;;;;;;;;;;;;;5015368;28;20057;-76
2022/09/10 09:02:29;;;;;;;23.65;19.15;;;;;;;;;;5019091;28;19929;-74
2022/09/10 09:04:58;;;;;;;25.25;18.65;;;;;;;;;;5015143;28;20441;-77
2022/09/10 09:07:29;;;;;;;21.52;17.27;;;;;;;;;;5016169;28;20042;-77
2022/09/10 09:09:55;;;;;;;25.42;17.60;;;;;;;;;;5017187;28;20060;-75
2022/09/10 09:12:40;;;;;;;24.05;16.35;;;;;;;;;;5020414;28;20080;-74
2022/09/10 09:15:06;;;;;;;23.05;18.13;;;;;;;;;;5017895;28;20033;-73
2022/09/10 09:17:58;;;;;;;24.83;18.17;;;;;;;;;;5020041;28;20057;-75
2022/09/10 09:20:40;;;;;;;24.42;16.40;;;;;;;;;;5018973;28;20100;-74
2022/09/10 09:23:26;;;;;;;21.67;15.77;;;;;;;;;;5018466;28;20050;-76
2022/09/10 09:25:55;;;;;;;20.92;16.05;;;;;;;;;;5018509;28;20050;-76
2022/09/10 09:28:34;;;;;;;23.30;16.70;;;;;;;;;;5018851;28;20396;-74
2022/09/10 09:31:04;;;;;;;22.08;17.08;;;;;;;;;;5021032;28;20411;-73
2022/09/10 09:33:30;;;;;;;19.92;16.30;;;;;;;;;;5019212;28;20108;-74
2022/09/10 09:35:59;;;;;;;19.35;14.52;;;;;;;;;;5017605;28;20052;-73
2022/09/10 09:38:36;;;;;;;22.85;16.52;;;;;;;;;;5017548;28;20056;-74
2022/09/10 09:41:06;;;;;;;18.23;14.75;;;;;;;;;;5000933;28;20102;-74
2022/09/10 09:43:51;;;;;;;18.60;14.77;;;;;;;;;;5005157;28;20080;-73
2022/09/10 09:46:18;;;;;;;19.65;15.00;;;;;;;;;;5011854;28;20061;-74
2022/09/10 09:48:44;;;;;;;19.13;15.15;;;;;;;;;;5024024;28;20143;-74
2022/09/10 09:51:13;;;;;;;18.10;15.05;;;;;;;;;;5024969;28;20064;-74
2022/09/10 09:53:39;;;;;;;18.10;14.50;;;;;;;;;;5029298;28;20049;-76
2022/09/10 09:56:12;;;;;;;18.48;14.85;;;;;;;;;;5026433;28;20336;-75
2022/09/10 09:58:39;;;;;;;18.40;15.15;;;;;;;;;;5028020;28;20053;-75
2022/09/10 10:01:05;;;;;;;20.65;14.13;;;;;;;;;;5020653;28;20042;-77
2022/09/10 10:03:33;;;;;;;23.90;14.10;;;;;;;;;;5034285;28;20038;-76
2022/09/10 10:06:04;;;;;;;19.58;13.27;;;;;;;;;;5033321;28;20037;-81
2022/09/10 10:08:33;;;;;;;20.30;13.95;;;;;;;;;;5033526;28;20061;-76
2022/09/10 10:10:59;;;;;;;16.92;14.02;;;;;;;;;;5036296;28;20050;-77
2022/09/10 10:13:34;;;;;;;18.08;13.75;;;;;;;;;;5012746;28;20033;-77
2022/09/10 10:16:13;;;;;;;19.00;14.63;;;;;;;;;;5026620;28;20037;-78
2022/09/10 10:18:41;;;;;;;18.63;13.57;;;;;;;;;;5031222;28;20068;-75
2022/09/10 10:21:07;;;;;;;15.43;13.63;;;;;;;;;;5030595;28;20029;-76
2022/09/10 10:23:37;;;;;;;14.15;12.32;;;;;;;;;;5031110;28;20109;-79
2022/09/10 10:26:16;;;;;;;18.98;13.27;;;;;;;;;;5005260;28;20038;-78
2022/09/10 10:28:57;;;;;;;19.00;13.02;;;;;;;;;;5021459;28;20137;-77
2022/09/10 10:31:24;;;;;;;15.25;12.75;;;;;;;;;;5020009;28;20407;-78
2022/09/10 10:34:02;;;;;;;17.95;13.27;;;;;;;;;;5010606;28;20041;-77
2022/09/10 10:36:34;;;;;;;15.45;12.05;;;;;;;;;;5016877;28;20036;-78
2022/09/10 10:39:05;;;;;;;17.40;12.70;;;;;;;;;;5034236;28;20038;-77
2022/09/10 10:41:41;;;;;;;19.35;12.35;;;;;;;;;;5038031;28;20026;-77
2022/09/10 10:44:17;;;;;;;16.67;12.02;;;;;;;;;;5038557;28;20038;-77
2022/09/10 10:46:43;;;;;;;16.88;13.32;;;;;;;;;;5037902;28;20026;-77
2022/09/10 10:49:18;;;;;;;15.75;12.80;;;;;;;;;;5038584;28;20034;-77
2022/09/10 10:51:44;;;;;;;14.80;12.05;;;;;;;;;;5038544;28;20026;-77
2022/09/10 10:54:25;;;;;;;14.13;10.98;;;;;;;;;;5037333;28;20040;-77
2022/09/10 10:56:58;;;;;;;14.70;11.05;;;;;;;;;;5036893;28;20033;-77
2022/09/10 10:59:43;;;;;;;13.70;10.88;;;;;;;;;;5019442;28;20054;-77
2022/09/10 11:02:12;;;;;;;13.88;11.95;;;;;;;;;;5034059;28;20045;-80
2022/09/10 11:04:42;;;;;;;15.45;11.30;;;;;;;;;;5032527;28;20041;-76
2022/09/10 11:07:12;;;;;;;17.48;11.90;;;;;;;;;;5031397;28;20046;-75
2022/09/10 11:09:45;;;;;;;16.38;11.95;;;;;;;;;;5020741;28;20032;-77
2022/09/10 11:12:26;;;;;;;14.80;11.48;;;;;;;;;;5023919;28;20042;-76
2022/09/10 11:14:58;;;;;;;14.80;11.45;;;;;;;;;;5019795;28;20460;-76
2022/09/10 11:17:46;;;;;;;13.90;11.13;;;;;;;;;;5029744;28;20064;-75
2022/09/10 11:20:27;;;;;;;13.88;10.15;;;;;;;;;;5016757;28;20060;-76
2022/09/10 11:23:02;;;;;;;14.30;10.23;;;;;;;;;;5024318;28;20050;-78
2022/09/10 11:25:32;;;;;;;14.73;10.07;;;;;;;;;;5018866;28;20038;-77
2022/09/10 11:28:03;;;;;;;12.55;11.10;;;;;;;;;;5000869;28;20046;-78
2022/09/10 11:30:32;;;;;;;15.85;11.32;;;;;;;;;;5023217;28;20531;-76
2022/09/10 11:33:01;;;;;;;16.40;10.65;;;;;;;;;;5018718;28;20092;-76
2022/09/10 11:35:28;;;;;;;13.27;9.75;;;;;;;;;;5010889;28;20104;-75
2022/09/10 11:38:11;;;;;;;12.82;9.20;;;;;;;;;;5000664;28;20045;-76
2022/09/10 11:40:38;;;;;;;14.40;8.18;;;;;;;;;;5020537;28;20507;-75
2022/09/10 11:43:11;;;;;;;14.10;8.77;;;;;;;;;;5023964;28;20503;-75
2022/09/10 11:45:46;;;;;;;13.15;9.07;;;;;;;;;;5027267;28;20424;-75
2022/09/10 11:48:22;;;;;;;14.00;9.40;;;;;;;;;;5025938;28;20105;-75
2022/09/10 11:51:17;;;;;;;12.02;9.48;;;;;;;;;;5004714;28;20046;-75
2022/09/10 11:53:44;;;;;;;13.05;8.77;;;;;;;;;;5005302;28;20065;-75
2022/09/10 11:56:25;;;;;;;10.82;8.77;;;;;;;;;;5015538;28;20105;-76
2022/09/10 11:59:18;;;;;;;12.18;8.30;;;;;;;;;;5020234;28;20120;-75
2022/09/10 12:02:01;;;;;;;12.05;8.55;;;;;;;;;;5016065;28;20064;-75
2022/09/10 12:04:46;;;;;;;13.05;8.45;;;;;;;;;;5020275;28;20065;-75
2022/09/10 12:07:18;;;;;;;14.45;7.32;;;;;;;;;;5024145;28;20045;-75
2022/09/10 12:09:51;;;;;;;10.55;8.07;;;;;;;;;;5023094;28;20042;-75
2022/09/10 12:12:36;;;;;;;13.75;8.35;;;;;;;;;;5005961;28;20168;-75
2022/09/10 12:15:07;;;;;;;12.02;7.70;;;;;;;;;;5021968;28;20495;-76
2022/09/10 12:17:36;;;;;;;11.68;8.13;;;;;;;;;;5018073;28;20060;-77
2022/09/10 12:20:04;;;;;;;12.23;7.18;;;;;;;;;;5006191;28;20262;-75
2022/09/10 12:22:35;;;;;;;9.57;7.20;;;;;;;;;;5019609;28;20049;-76
2022/09/10 12:25:05;;;;;;;11.38;8.00;;;;;;;;;;5022784;28;20038;-78
2022/09/10 12:27:48;;;;;;;11.80;7.60;;;;;;;;;;5023328;28;20516;-75
2022/09/10 12:30:26;;;;;;;12.70;7.53;;;;;;;;;;5027005;28;20328;-76
2022/09/10 12:32:52;;;;;;;11.32;7.72;;;;;;;;;;5028166;28;20041;-76
2022/09/10 12:35:30;;;;;;;11.93;7.40;;;;;;;;;;5023367;28;20117;-75
2022/09/10 12:38:16;;;;;;;9.90;6.90;;;;;;;;;;5005604;28;20045;-77
2022/09/10 12:40:48;;;;;;;10.13;7.35;;;;;;;;;;5024256;28;20094;-78
2022/09/10 12:43:33;;;;;;;11.00;6.70;;;;;;;;;;5028681;28;20049;-75
2022/09/10 12:46:05;;;;;;;14.70;6.15;;;;;;;;;;5027847;28;20045;-74
2022/09/10 12:48:33;;;;;;;10.35;6.22;;;;;;;;;;5020291;28;20073;-73
2022/09/10 12:51:00;;;;;;;8.93;6.97;;;;;;;;;;5003954;28;20522;-73
2022/09/10 12:53:42;;;;;;;10.05;6.70;;;;;;;;;;5027024;28;20064;-73
2022/09/10 12:56:31;;;;;;;10.98;6.65;;;;;;;;;;5025826;28;20385;-74
2022/09/10 12:59:16;;;;;;;9.90;6.18;;;;;;;;;;5015159;28;20077;-73
2022/09/10 13:01:45;;;;;;;9.70;5.15;;;;;;;;;;5028575;28;20179;-73
2022/09/10 13:04:27;;;;;;;9.80;5.72;;;;;;;;;;5027760;28;20129;-73
2022/09/10 13:06:54;;;;;;;8.52;5.18;;;;;;;;;;5009043;28;20477;-73
2022/09/10 13:09:23;;;;;;;10.02;5.40;;;;;;;;;;5025419;28;20114;-73
2022/09/10 13:11:52;;;;;;;8.88;4.80;;;;;;;;;;5027811;28;20046;-73
2022/09/10 13:14:30;;;;;;;8.00;5.32;;;;;;;;;;5026566;28;20073;-73
2022/09/10 13:16:56;;;;;;;9.35;6.00;;;;;;;;;;5022622;28;20073;-73
2022/09/10 13:19:22;;;;;;;10.05;6.30;;;;;;;;;;5025217;28;20092;-73
2022/09/10 13:21:50;;;;;;;9.77;5.75;;;;;;;;;;5025497;28;20050;-73
2022/09/10 13:24:35;;;;;;;10.23;6.22;;;;;;;;;;5026119;28;20041;-73
2022/09/10 13:27:03;;;;;;;8.35;5.70;;;;;;;;;;5023689;28;20052;-73
2022/09/10 13:29:33;;;;;;;9.40;7.05;;;;;;;;;;5025923;28;20407;-74
2022/09/10 13:32:01;;;;;;;10.68;6.55;;;;;;;;;;5036607;28;20064;-74
2022/09/10 13:34:33;;;;;;;11.35;7.03;;;;;;;;;;5024218;28;20492;-74
2022/09/10 13:37:02;;;;;;;9.82;6.78;;;;;;;;;;5025765;28;20050;-74
2022/09/10 13:39:41;;;;;;;11.32;7.22;;;;;;;;;;5026820;28;20041;-74
2022/09/10 13:42:07;;;;;;;10.48;6.82;;;;;;;;;;5026070;28;20058;-74
2022/09/10 13:44:46;;;;;;;11.00;7.47;;;;;;;;;;5024863;28;20037;-74
2022/09/10 13:47:16;;;;;;;9.52;6.90;;;;;;;;;;5025771;28;20042;-73
2022/09/10 13:50:02;;;;;;;11.73;7.80;;;;;;;;;;5025047;28;20081;-74
2022/09/10 13:52:29;;;;;;;10.18;7.63;;;;;;;;;;5025664;28;20049;-74
2022/09/10 13:54:56;;;;;;;10.02;7.13;;;;;;;;;;5027271;28;20053;-74
2022/09/10 13:57:25;;;;;;;10.05;6.13;;;;;;;;;;5025744;28;20124;-74
2022/09/10 13:59:52;;;;;;;12.07;7.80;;;;;;;;;;5030975;28;20053;-74
2022/09/10 14:02:20;;;;;;;10.98;6.40;;;;;;;;;;5030975;28;20084;-73
2022/09/10 14:04:46;;;;;;;11.38;6.60;;;;;;;;;;5027843;28;20149;-74
2022/09/10 14:07:14;;;;;;;11.15;6.30;;;;;;;;;;5027212;28;20040;-73
2022/09/10 14:09:42;;;;;;;11.57;7.30;;;;;;;;;;5014790;28;20507;-74
2022/09/10 14:12:09;;;;;;;10.73;8.05;;;;;;;;;;5014897;28;20088;-74
2022/09/10 14:14:37;;;;;;;11.85;7.57;;;;;;;;;;5036109;28;20053;-73
2022/09/10 14:17:05;;;;;;;11.73;7.28;;;;;;;;;;5034832;28;20052;-73
2022/09/10 14:19:48;;;;;;;10.65;7.93;;;;;;;;;;5031311;28;20044;-73
2022/09/10 14:22:23;;;;;;;9.18;7.03;;;;;;;;;;5031554;28;20427;-73
2022/09/10 14:24:50;;;;;;;9.60;7.00;;;;;;;;;;5037342;28;20053;-73
2022/09/10 14:27:36;;;;;;;12.05;8.02;;;;;;;;;;5039873;28;20078;-74
2022/09/10 14:30:17;;;;;;;11.45;8.40;;;;;;;;;;5037725;28;20051;-73
2022/09/10 14:32:47;;;;;;;12.30;9.02;;;;;;;;;;5020489;28;20065;-73
2022/09/10 14:35:31;;;;;;;14.13;10.23;;;;;;;;;;5037809;28;20041;-74